sensor_id;sensor_type;location;lat;lon;timestamp;pressure;altitude;pressure_sealevel;temperature;humidity
70103;BME280;57470;50.034;15.256;2023-07-31T00:01:17;99220.09;;;16.80;88.58
70103;BME280;57470;50.034;15.256;2023-07-31T00:03:43;99244.97;;;16.82;89.04
70103;BME280;57470;50.034;15.256;2023-07-31T00:06:08;99233.72;;;16.59;90.21
70103;BME280;57470;50.034;15.256;2023-07-31T00:08:34;99230.66;;;16.64;90.35
70103;BME280;57470;50.034;15.256;2023-07-31T00:10:59;99233.06;;;16.84;90.35
70103;BME280;57470;50.034;15.256;2023-07-31T00:13:24;99227.31;;;16.79;89.55
70103;BME280;57470;50.034;15.256;2023-07-31T00:15:50;99229.41;;;16.48;91.12
70103;BME280;57470;50.034;15.256;2023-07-31T00:18:15;99236.78;;;16.74;90.26
70103;BME280;57470;50.034;15.256;2023-07-31T00:20:41;99242.69;;;17.05;89.05
70103;BME280;57470;50.034;15.256;2023-07-31T00:23:06;99233.78;;;17.04;88.19
70103;BME280;57470;50.034;15.256;2023-07-31T00:25:32;99240.22;;;17.11;87.81
70103;BME280;57470;50.034;15.256;2023-07-31T00:27:57;99231.38;;;17.01;88.34
70103;BME280;57470;50.034;15.256;2023-07-31T00:30:22;99230.88;;;17.15;87.15
70103;BME280;57470;50.034;15.256;2023-07-31T00:32:50;99240.06;;;16.95;88.59
70103;BME280;57470;50.034;15.256;2023-07-31T00:35:15;99239.38;;;17.11;88.10
70103;BME280;57470;50.034;15.256;2023-07-31T00:37:41;99236.03;;;17.09;87.80
70103;BME280;57470;50.034;15.256;2023-07-31T00:40:07;99226.91;;;16.92;88.40
70103;BME280;57470;50.034;15.256;2023-07-31T00:42:33;99249.16;;;17.30;86.32
70103;BME280;57470;50.034;15.256;2023-07-31T00:44:58;99236.03;;;17.09;88.33
70103;BME280;57470;50.034;15.256;2023-07-31T00:47:23;99239.66;;;17.17;87.47
70103;BME280;57470;50.034;15.256;2023-07-31T00:49:49;99249.81;;;16.96;87.43
70103;BME280;57470;50.034;15.256;2023-07-31T00:52:14;99232.72;;;16.97;87.78
70103;BME280;57470;50.034;15.256;2023-07-31T00:54:40;99238.56;;;17.28;86.48
70103;BME280;57470;50.034;15.256;2023-07-31T00:57:05;99233.44;;;17.17;86.95
70103;BME280;57470;50.034;15.256;2023-07-31T00:59:33;99235.63;;;17.04;87.70
70103;BME280;57470;50.034;15.256;2023-07-31T01:01:59;99239.53;;;17.09;87.08
70103;BME280;57470;50.034;15.256;2023-07-31T01:04:24;99245.44;;;16.95;88.00
70103;BME280;57470;50.034;15.256;2023-07-31T01:07:00;99237.75;;;17.00;87.33
70103;BME280;57470;50.034;15.256;2023-07-31T01:09:43;99241.47;;;16.99;87.52
70103;BME280;57470;50.034;15.256;2023-07-31T01:12:14;99226.53;;;16.87;88.12
70103;BME280;57470;50.034;15.256;2023-07-31T01:14:39;99228.59;;;16.75;87.77
70103;BME280;57470;50.034;15.256;2023-07-31T01:17:05;99233.59;;;16.88;87.43
70103;BME280;57470;50.034;15.256;2023-07-31T01:19:30;99235.44;;;16.60;89.65
70103;BME280;57470;50.034;15.256;2023-07-31T01:24:59;99227.81;;;16.83;87.10
70103;BME280;57470;50.034;15.256;2023-07-31T01:27:31;99229.56;;;16.74;87.42
70103;BME280;57470;50.034;15.256;2023-07-31T01:30:05;99225.41;;;16.62;88.43
70103;BME280;57470;50.034;15.256;2023-07-31T01:32:36;99223.25;;;16.01;90.90
70103;BME280;57470;50.034;15.256;2023-07-31T01:35:04;99220.84;;;16.35;89.41
70103;BME280;57470;50.034;15.256;2023-07-31T01:37:30;99224.31;;;16.55;88.41
70103;BME280;57470;50.034;15.256;2023-07-31T01:39:55;99208.56;;;16.60;88.24
70103;BME280;57470;50.034;15.256;2023-07-31T01:42:20;99209.63;;;16.49;87.93
70103;BME280;57470;50.034;15.256;2023-07-31T01:44:46;99225.66;;;16.69;87.88
70103;BME280;57470;50.034;15.256;2023-07-31T01:47:11;99225.19;;;16.73;88.58
70103;BME280;57470;50.034;15.256;2023-07-31T01:49:37;99214.84;;;16.51;88.58
70103;BME280;57470;50.034;15.256;2023-07-31T01:52:02;99222.41;;;16.65;88.05
70103;BME280;57470;50.034;15.256;2023-07-31T01:54:27;99220.06;;;16.62;87.03
70103;BME280;57470;50.034;15.256;2023-07-31T01:56:53;99215.31;;;16.74;87.09
70103;BME280;57470;50.034;15.256;2023-07-31T01:59:18;99219.56;;;16.39;89.58
70103;BME280;57470;50.034;15.256;2023-07-31T02:01:44;99209.22;;;16.44;88.33
70103;BME280;57470;50.034;15.256;2023-07-31T02:04:09;99220.50;;;16.48;88.57
70103;BME280;57470;50.034;15.256;2023-07-31T02:06:34;99216.19;;;16.65;88.10
70103;BME280;57470;50.034;15.256;2023-07-31T02:09:00;99206.19;;;16.20;90.31
70103;BME280;57470;50.034;15.256;2023-07-31T02:11:25;99204.34;;;16.58;88.54
70103;BME280;57470;50.034;15.256;2023-07-31T02:13:51;99202.63;;;16.66;88.34
70103;BME280;57470;50.034;15.256;2023-07-31T02:16:16;99214.44;;;16.73;88.21
70103;BME280;57470;50.034;15.256;2023-07-31T02:18:41;99226.75;;;16.76;88.23
70103;BME280;57470;50.034;15.256;2023-07-31T02:21:07;99216.25;;;16.55;88.28
70103;BME280;57470;50.034;15.256;2023-07-31T02:23:32;99208.00;;;16.66;88.25
70103;BME280;57470;50.034;15.256;2023-07-31T02:25:58;99212.53;;;16.66;88.52
70103;BME280;57470;50.034;15.256;2023-07-31T02:28:23;99208.09;;;16.74;88.18
70103;BME280;57470;50.034;15.256;2023-07-31T02:30:50;99212.88;;;16.80;86.73
70103;BME280;57470;50.034;15.256;2023-07-31T02:33:15;99209.09;;;16.73;86.82
70103;BME280;57470;50.034;15.256;2023-07-31T02:35:41;99204.88;;;16.71;88.00
70103;BME280;57470;50.034;15.256;2023-07-31T02:38:07;99214.41;;;16.83;86.61
70103;BME280;57470;50.034;15.256;2023-07-31T02:40:32;99215.56;;;16.80;86.36
70103;BME280;57470;50.034;15.256;2023-07-31T02:42:58;99191.88;;;16.66;86.85
70103;BME280;57470;50.034;15.256;2023-07-31T02:45:23;99220.09;;;16.80;86.08
70103;BME280;57470;50.034;15.256;2023-07-31T02:47:48;99201.63;;;16.67;86.37
70103;BME280;57470;50.034;15.256;2023-07-31T02:50:14;99188.56;;;16.55;87.04
70103;BME280;57470;50.034;15.256;2023-07-31T02:52:39;99192.22;;;16.63;86.44
70103;BME280;57470;50.034;15.256;2023-07-31T02:55:05;99208.56;;;16.70;86.37
70103;BME280;57470;50.034;15.256;2023-07-31T02:57:31;99202.50;;;16.85;86.18
70103;BME280;57470;50.034;15.256;2023-07-31T02:59:56;99196.75;;;16.80;86.14
70103;BME280;57470;50.034;15.256;2023-07-31T03:02:22;99202.50;;;16.85;86.55
70103;BME280;57470;50.034;15.256;2023-07-31T03:04:47;99202.03;;;16.72;87.74
70103;BME280;57470;50.034;15.256;2023-07-31T03:07:12;99204.34;;;16.85;86.24
70103;BME280;57470;50.034;15.256;2023-07-31T03:09:38;99195.94;;;16.43;88.05
70103;BME280;57470;50.034;15.256;2023-07-31T03:12:03;99190.47;;;16.72;86.26
70103;BME280;57470;50.034;15.256;2023-07-31T03:14:29;99189.34;;;16.65;86.13
70103;BME280;57470;50.034;15.256;2023-07-31T03:16:54;99187.94;;;16.33;85.54
70103;BME280;57470;50.034;15.256;2023-07-31T03:19:20;99197.81;;;16.70;85.67
70103;BME280;57470;50.034;15.256;2023-07-31T03:21:45;99182.97;;;16.66;85.43
70103;BME280;57470;50.034;15.256;2023-07-31T03:24:11;99190.78;;;16.59;86.11
70103;BME280;57470;50.034;15.256;2023-07-31T03:26:37;99189.16;;;16.94;85.03
70103;BME280;57470;50.034;15.256;2023-07-31T03:29:03;99185.78;;;16.92;85.40
70103;BME280;57470;50.034;15.256;2023-07-31T03:31:28;99186.69;;;16.82;84.95
70103;BME280;57470;50.034;15.256;2023-07-31T03:33:54;99186.16;;;16.79;85.89
70103;BME280;57470;50.034;15.256;2023-07-31T03:36:19;99191.16;;;16.92;84.78
70103;BME280;57470;50.034;15.256;2023-07-31T03:38:46;99197.50;;;16.45;88.13
70103;BME280;57470;50.034;15.256;2023-07-31T03:41:11;99175.13;;;16.55;85.51
70103;BME280;57470;50.034;15.256;2023-07-31T03:43:37;99191.91;;;16.57;85.43
70103;BME280;57470;50.034;15.256;2023-07-31T03:46:02;99194.97;;;16.71;85.93
70103;BME280;57470;50.034;15.256;2023-07-31T03:48:28;99183.72;;;16.58;84.34
70103;BME280;57470;50.034;15.256;2023-07-31T03:50:53;99204.94;;;16.61;84.79
70103;BME280;57470;50.034;15.256;2023-07-31T03:53:19;99200.25;;;16.91;83.47
70103;BME280;57470;50.034;15.256;2023-07-31T03:55:44;99192.31;;;16.89;83.14
70103;BME280;57470;50.034;15.256;2023-07-31T03:58:10;99202.59;;;16.94;83.36
70103;BME280;57470;50.034;15.256;2023-07-31T04:00:35;99198.28;;;16.83;82.86
70103;BME280;57470;50.034;15.256;2023-07-31T04:03:00;99209.75;;;17.03;83.01
70103;BME280;57470;50.034;15.256;2023-07-31T04:05:26;99197.25;;;16.66;84.00
70103;BME280;57470;50.034;15.256;2023-07-31T04:07:51;99200.75;;;16.94;82.64
70103;BME280;57470;50.034;15.256;2023-07-31T04:10:17;99204.75;;;16.90;83.51
70103;BME280;57470;50.034;15.256;2023-07-31T04:12:42;99198.69;;;16.61;83.85
70103;BME280;57470;50.034;15.256;2023-07-31T04:15:08;99195.84;;;16.72;84.18
70103;BME280;57470;50.034;15.256;2023-07-31T04:17:33;99201.91;;;16.92;83.66
70103;BME280;57470;50.034;15.256;2023-07-31T04:19:58;99193.38;;;16.78;83.15
70103;BME280;57470;50.034;15.256;2023-07-31T04:22:24;99204.50;;;16.83;83.57
70103;BME280;57470;50.034;15.256;2023-07-31T04:24:49;99204.34;;;16.85;83.06
70103;BME280;57470;50.034;15.256;2023-07-31T04:27:15;99206.91;;;17.04;82.89
70103;BME280;57470;50.034;15.256;2023-07-31T04:29:40;99202.03;;;17.17;82.13
70103;BME280;57470;50.034;15.256;2023-07-31T04:32:08;99188.25;;;17.20;82.06
70103;BME280;57470;50.034;15.256;2023-07-31T04:34:33;99195.63;;;17.18;81.75
70103;BME280;57470;50.034;15.256;2023-07-31T04:36:58;99196.66;;;17.17;82.25
70103;BME280;57470;50.034;15.256;2023-07-31T04:39:24;99193.47;;;17.40;80.66
70103;BME280;57470;50.034;15.256;2023-07-31T04:41:49;99191.25;;;16.82;83.60
70103;BME280;57470;50.034;15.256;2023-07-31T04:44:14;99190.78;;;17.04;81.26
70103;BME280;57470;50.034;15.256;2023-07-31T04:46:40;99200.00;;;17.19;81.08
70103;BME280;57470;50.034;15.256;2023-07-31T04:49:07;99202.75;;;17.45;80.79
70103;BME280;57470;50.034;15.256;2023-07-31T04:51:32;99198.97;;;16.85;82.64
70103;BME280;57470;50.034;15.256;2023-07-31T04:53:58;99185.97;;;17.08;81.75
70103;BME280;57470;50.034;15.256;2023-07-31T04:56:23;99194.75;;;17.00;82.26
70103;BME280;57470;50.034;15.256;2023-07-31T04:58:48;99197.00;;;17.22;80.77
70103;BME280;57470;50.034;15.256;2023-07-31T05:01:14;99198.69;;;17.41;81.00
70103;BME280;57470;50.034;15.256;2023-07-31T05:03:39;99191.25;;;16.82;82.77
70103;BME280;57470;50.034;15.256;2023-07-31T05:06:05;99194.31;;;17.22;80.96
70103;BME280;57470;50.034;15.256;2023-07-31T05:08:30;99203.34;;;17.57;79.86
70103;BME280;57470;50.034;15.256;2023-07-31T05:10:55;99196.69;;;17.43;81.16
70103;BME280;57470;50.034;15.256;2023-07-31T05:13:21;99197.81;;;17.58;80.82
70103;BME280;57470;50.034;15.256;2023-07-31T05:15:46;99200.16;;;17.71;79.63
70103;BME280;57470;50.034;15.256;2023-07-31T05:18:11;99195.34;;;17.83;79.51
70103;BME280;57470;50.034;15.256;2023-07-31T05:20:37;99190.00;;;17.65;81.48
70103;BME280;57470;50.034;15.256;2023-07-31T05:23:02;99189.59;;;18.04;79.49
70103;BME280;57470;50.034;15.256;2023-07-31T05:25:28;99190.28;;;17.80;80.71
70103;BME280;57470;50.034;15.256;2023-07-31T05:27:53;99187.59;;;17.80;80.88
70103;BME280;57470;50.034;15.256;2023-07-31T05:30:18;99191.59;;;18.02;80.27
70103;BME280;57470;50.034;15.256;2023-07-31T05:32:44;99187.34;;;17.12;83.08
70103;BME280;57470;50.034;15.256;2023-07-31T05:35:09;99184.47;;;17.49;82.86
70103;BME280;57470;50.034;15.256;2023-07-31T05:37:35;99190.94;;;18.08;81.60
70103;BME280;57470;50.034;15.256;2023-07-31T05:40:00;99194.94;;;18.29;79.26
70103;BME280;57470;50.034;15.256;2023-07-31T05:42:26;99195.19;;;18.10;77.28
70103;BME280;57470;50.034;15.256;2023-07-31T05:44:51;99190.16;;;17.63;81.28
70103;BME280;57470;50.034;15.256;2023-07-31T05:47:17;99191.38;;;18.21;78.67
70103;BME280;57470;50.034;15.256;2023-07-31T05:49:42;99197.28;;;18.24;78.56
70103;BME280;57470;50.034;15.256;2023-07-31T05:52:07;99190.75;;;18.01;79.03
70103;BME280;57470;50.034;15.256;2023-07-31T05:54:33;99199.56;;;17.85;78.11
70103;BME280;57470;50.034;15.256;2023-07-31T05:56:58;99199.56;;;18.45;76.58
70103;BME280;57470;50.034;15.256;2023-07-31T05:59:24;99200.75;;;18.17;78.33
70103;BME280;57470;50.034;15.256;2023-07-31T06:01:49;99200.75;;;18.17;78.00
70103;BME280;57470;50.034;15.256;2023-07-31T06:04:15;99197.31;;;18.32;76.67
70103;BME280;57470;50.034;15.256;2023-07-31T06:06:40;99203.88;;;18.30;77.71
70103;BME280;57470;50.034;15.256;2023-07-31T06:09:06;99188.28;;;18.42;77.13
70103;BME280;57470;50.034;15.256;2023-07-31T06:11:32;99192.50;;;18.52;77.67
70103;BME280;57470;50.034;15.256;2023-07-31T06:13:58;99195.16;;;18.44;76.93
70103;BME280;57470;50.034;15.256;2023-07-31T06:16:23;99188.06;;;18.35;77.50
70103;BME280;57470;50.034;15.256;2023-07-31T06:18:49;99186.41;;;18.34;77.52
70103;BME280;57470;50.034;15.256;2023-07-31T06:21:14;99195.34;;;18.77;76.81
70103;BME280;57470;50.034;15.256;2023-07-31T06:23:40;99191.81;;;18.84;76.62
70103;BME280;57470;50.034;15.256;2023-07-31T06:26:05;99185.28;;;18.95;75.67
70103;BME280;57470;50.034;15.256;2023-07-31T06:28:31;99185.31;;;19.43;75.00
70103;BME280;57470;50.034;15.256;2023-07-31T06:30:58;99181.63;;;19.36;75.24
70103;BME280;57470;50.034;15.256;2023-07-31T06:33:24;99185.00;;;19.71;73.80
70103;BME280;57470;50.034;15.256;2023-07-31T06:35:50;99173.53;;;19.36;75.22
70103;BME280;57470;50.034;15.256;2023-07-31T06:38:18;99168.97;;;19.77;74.98
70103;BME280;57470;50.034;15.256;2023-07-31T06:40:43;99173.00;;;19.98;74.02
70103;BME280;57470;50.034;15.256;2023-07-31T06:43:09;99175.53;;;20.54;73.50
70103;BME280;57470;50.034;15.256;2023-07-31T06:45:35;99177.56;;;20.52;74.55
70103;BME280;57470;50.034;15.256;2023-07-31T06:48:01;99162.75;;;20.48;72.41
70103;BME280;57470;50.034;15.256;2023-07-31T06:50:31;99169.63;;;20.51;71.65
70103;BME280;57470;50.034;15.256;2023-07-31T06:52:57;99169.97;;;20.87;70.25
70103;BME280;57470;50.034;15.256;2023-07-31T06:55:23;99169.72;;;20.74;70.63
70103;BME280;57470;50.034;15.256;2023-07-31T06:57:50;99181.56;;;20.95;71.07
70103;BME280;57470;50.034;15.256;2023-07-31T07:00:16;99188.28;;;20.30;70.76
70103;BME280;57470;50.034;15.256;2023-07-31T07:02:42;99186.94;;;20.26;70.68
70103;BME280;57470;50.034;15.256;2023-07-31T07:05:08;99189.53;;;20.03;72.26
70103;BME280;57470;50.034;15.256;2023-07-31T07:07:33;99180.44;;;19.79;72.91
70103;BME280;57470;50.034;15.256;2023-07-31T07:09:59;99179.09;;;19.83;73.85
70103;BME280;57470;50.034;15.256;2023-07-31T07:12:25;99181.16;;;19.57;72.39
70103;BME280;57470;50.034;15.256;2023-07-31T07:14:51;99171.50;;;19.38;73.88
70103;BME280;57470;50.034;15.256;2023-07-31T07:17:18;99184.47;;;19.92;72.74
70103;BME280;57470;50.034;15.256;2023-07-31T07:19:44;99187.69;;;19.95;71.87
70103;BME280;57470;50.034;15.256;2023-07-31T07:22:11;99184.72;;;20.29;72.00
70103;BME280;57470;50.034;15.256;2023-07-31T07:24:36;99173.59;;;20.24;71.87
70103;BME280;57470;50.034;15.256;2023-07-31T07:27:02;99174.66;;;20.07;73.92
70103;BME280;57470;50.034;15.256;2023-07-31T07:29:27;99178.56;;;19.88;73.13
70103;BME280;57470;50.034;15.256;2023-07-31T07:31:53;99179.59;;;19.79;71.58
70103;BME280;57470;50.034;15.256;2023-07-31T07:34:18;99161.38;;;19.89;74.23
70103;BME280;57470;50.034;15.256;2023-07-31T07:36:44;99170.03;;;20.23;74.52
70103;BME280;57470;50.034;15.256;2023-07-31T07:39:10;99158.59;;;20.21;72.47
70103;BME280;57470;50.034;15.256;2023-07-31T07:41:36;99162.69;;;20.09;71.66
70103;BME280;57470;50.034;15.256;2023-07-31T07:44:01;99153.53;;;20.18;71.30
70103;BME280;57470;50.034;15.256;2023-07-31T07:46:27;99155.13;;;19.89;72.47
70103;BME280;57470;50.034;15.256;2023-07-31T07:48:52;99159.63;;;20.12;72.06
70103;BME280;57470;50.034;15.256;2023-07-31T07:51:17;99149.84;;;20.11;72.82
70103;BME280;57470;50.034;15.256;2023-07-31T07:53:43;99137.91;;;19.90;72.37
70103;BME280;57470;50.034;15.256;2023-07-31T07:56:08;99154.03;;;20.14;72.83
70103;BME280;57470;50.034;15.256;2023-07-31T07:58:34;99153.63;;;19.86;72.98
70103;BME280;57470;50.034;15.256;2023-07-31T08:00:59;99145.34;;;19.88;74.33
70103;BME280;57470;50.034;15.256;2023-07-31T08:03:24;99143.66;;;19.95;74.81
70103;BME280;57470;50.034;15.256;2023-07-31T08:05:50;99160.28;;;20.14;73.04
70103;BME280;57470;50.034;15.256;2023-07-31T08:08:15;99142.88;;;20.25;73.24
70103;BME280;57470;50.034;15.256;2023-07-31T08:10:42;99150.94;;;20.33;71.87
70103;BME280;57470;50.034;15.256;2023-07-31T08:13:09;99136.84;;;20.07;74.64
70103;BME280;57470;50.034;15.256;2023-07-31T08:15:34;99153.69;;;20.17;75.19
70103;BME280;57470;50.034;15.256;2023-07-31T08:18:00;99145.47;;;20.10;74.02
70103;BME280;57470;50.034;15.256;2023-07-31T08:20:26;99151.31;;;20.38;73.10
70103;BME280;57470;50.034;15.256;2023-07-31T08:22:51;99149.72;;;20.52;71.82
70103;BME280;57470;50.034;15.256;2023-07-31T08:25:18;99148.13;;;20.66;71.62
70103;BME280;57470;50.034;15.256;2023-07-31T08:27:43;99152.44;;;21.06;72.31
70103;BME280;57470;50.034;15.256;2023-07-31T08:30:11;99155.38;;;21.27;69.84
70103;BME280;57470;50.034;15.256;2023-07-31T08:32:36;99155.81;;;21.08;70.87
70103;BME280;57470;50.034;15.256;2023-07-31T08:35:02;99166.41;;;21.78;70.25
70103;BME280;57470;50.034;15.256;2023-07-31T08:37:27;99161.25;;;21.68;70.83
70103;BME280;57470;50.034;15.256;2023-07-31T08:39:53;99149.47;;;21.46;71.57
70103;BME280;57470;50.034;15.256;2023-07-31T08:42:20;99162.28;;;21.67;70.65
70103;BME280;57470;50.034;15.256;2023-07-31T08:44:46;99148.63;;;21.46;69.28
70103;BME280;57470;50.034;15.256;2023-07-31T08:47:12;99158.91;;;22.02;68.59
70103;BME280;57470;50.034;15.256;2023-07-31T08:49:38;99145.09;;;22.12;68.17
70103;BME280;57470;50.034;15.256;2023-07-31T08:52:04;99162.69;;;21.93;68.78
70103;BME280;57470;50.034;15.256;2023-07-31T08:54:30;99150.13;;;22.30;67.75
70103;BME280;57470;50.034;15.256;2023-07-31T08:56:57;99137.06;;;22.33;67.92
70103;BME280;57470;50.034;15.256;2023-07-31T08:59:26;99152.66;;;22.31;69.47
70103;BME280;57470;50.034;15.256;2023-07-31T09:01:55;99148.34;;;22.52;67.84
70103;BME280;57470;50.034;15.256;2023-07-31T09:04:23;99137.91;;;22.85;67.65
70103;BME280;57470;50.034;15.256;2023-07-31T09:06:52;99140.50;;;22.42;68.29
70103;BME280;57470;50.034;15.256;2023-07-31T09:09:20;99145.00;;;22.86;67.76
70103;BME280;57470;50.034;15.256;2023-07-31T09:11:46;99135.38;;;22.83;65.73
70103;BME280;57470;50.034;15.256;2023-07-31T09:14:13;99146.41;;;22.96;66.10
70103;BME280;57470;50.034;15.256;2023-07-31T09:17:05;99153.03;;;22.94;64.84
70103;BME280;57470;50.034;15.256;2023-07-31T09:19:35;99152.03;;;23.16;65.81
70103;BME280;57470;50.034;15.256;2023-07-31T09:22:06;99151.34;;;22.93;65.51
70103;BME280;57470;50.034;15.256;2023-07-31T09:24:33;99150.38;;;23.00;66.04
70103;BME280;57470;50.034;15.256;2023-07-31T09:27:01;99138.31;;;22.81;67.35
70103;BME280;57470;50.034;15.256;2023-07-31T09:29:28;99157.25;;;23.17;65.34
70103;BME280;57470;50.034;15.256;2023-07-31T09:31:54;99146.25;;;23.47;64.95
70103;BME280;57470;50.034;15.256;2023-07-31T09:34:20;99153.50;;;23.18;65.71
70103;BME280;57470;50.034;15.256;2023-07-31T09:36:50;99148.81;;;22.91;65.30
70103;BME280;57470;50.034;15.256;2023-07-31T09:39:17;99152.78;;;22.74;65.20
70103;BME280;57470;50.034;15.256;2023-07-31T09:41:44;99144.63;;;22.74;65.05
70103;BME280;57470;50.034;15.256;2023-07-31T09:44:10;99150.47;;;22.71;65.28
70103;BME280;57470;50.034;15.256;2023-07-31T09:46:36;99148.03;;;22.76;65.67
70103;BME280;57470;50.034;15.256;2023-07-31T09:49:13;99149.34;;;22.80;64.96
70103;BME280;57470;50.034;15.256;2023-07-31T09:51:41;99145.78;;;22.65;66.19
70103;BME280;57470;50.034;15.256;2023-07-31T09:54:15;99136.25;;;22.69;65.39
70103;BME280;57470;50.034;15.256;2023-07-31T09:56:45;99145.69;;;22.88;65.35
70103;BME280;57470;50.034;15.256;2023-07-31T09:59:16;99140.22;;;22.52;66.65
70103;BME280;57470;50.034;15.256;2023-07-31T10:01:43;99143.22;;;22.93;65.65
70103;BME280;57470;50.034;15.256;2023-07-31T10:04:10;99143.88;;;22.95;65.34
70103;BME280;57470;50.034;15.256;2023-07-31T10:06:37;99131.50;;;22.56;65.36
70103;BME280;57470;50.034;15.256;2023-07-31T10:09:07;99126.94;;;22.42;66.07
70103;BME280;57470;50.034;15.256;2023-07-31T10:11:40;99115.09;;;22.28;66.90
70103;BME280;57470;50.034;15.256;2023-07-31T10:14:07;99126.63;;;22.81;65.84
70103;BME280;57470;50.034;15.256;2023-07-31T10:16:34;99116.81;;;22.80;66.52
70103;BME280;57470;50.034;15.256;2023-07-31T10:19:00;99114.09;;;22.80;66.60
70103;BME280;57470;50.034;15.256;2023-07-31T10:21:27;99118.03;;;22.77;65.84
70103;BME280;57470;50.034;15.256;2023-07-31T10:23:53;99107.91;;;23.07;65.81
70103;BME280;57470;50.034;15.256;2023-07-31T10:26:19;99099.88;;;23.20;66.08
70103;BME280;57470;50.034;15.256;2023-07-31T10:28:46;99099.16;;;23.54;65.60
70103;BME280;57470;50.034;15.256;2023-07-31T10:31:12;99086.94;;;23.44;64.63
70103;BME280;57470;50.034;15.256;2023-07-31T10:33:39;99083.69;;;23.55;63.86
70103;BME280;57470;50.034;15.256;2023-07-31T10:36:17;99080.38;;;23.10;63.98
70103;BME280;57470;50.034;15.256;2023-07-31T10:38:43;99073.97;;;23.67;64.00
70103;BME280;57470;50.034;15.256;2023-07-31T10:41:09;99058.34;;;23.48;64.35
70103;BME280;57470;50.034;15.256;2023-07-31T10:43:36;99067.97;;;24.13;63.21
70103;BME280;57470;50.034;15.256;2023-07-31T10:46:06;99075.06;;;24.48;64.42
70103;BME280;57470;50.034;15.256;2023-07-31T10:48:33;99062.31;;;24.49;63.00
70103;BME280;57470;50.034;15.256;2023-07-31T10:50:59;99060.44;;;24.49;63.25
70103;BME280;57470;50.034;15.256;2023-07-31T10:53:26;99055.19;;;24.48;62.46
70103;BME280;57470;50.034;15.256;2023-07-31T10:55:52;99059.91;;;24.26;62.00
70103;BME280;57470;50.034;15.256;2023-07-31T10:58:19;99054.63;;;24.65;61.92
70103;BME280;57470;50.034;15.256;2023-07-31T11:00:46;99054.03;;;24.83;62.26
70103;BME280;57470;50.034;15.256;2023-07-31T11:03:19;99044.03;;;25.03;62.76
70103;BME280;57470;50.034;15.256;2023-07-31T11:13:32;99039.56;;;24.76;60.60
70103;BME280;57470;50.034;15.256;2023-07-31T11:15:58;99039.53;;;24.69;60.43
70103;BME280;57470;50.034;15.256;2023-07-31T11:18:24;99029.38;;;24.91;60.59
70103;BME280;57470;50.034;15.256;2023-07-31T11:20:50;99024.94;;;24.84;60.72
70103;BME280;57470;50.034;15.256;2023-07-31T11:23:17;99016.59;;;24.98;59.66
70103;BME280;57470;50.034;15.256;2023-07-31T11:25:43;99012.44;;;25.02;60.75
70103;BME280;57470;50.034;15.256;2023-07-31T11:28:10;99014.91;;;25.43;59.51
70103;BME280;57470;50.034;15.256;2023-07-31T11:30:36;99015.53;;;25.46;58.90
70103;BME280;57470;50.034;15.256;2023-07-31T11:33:03;99004.69;;;24.93;59.42
70103;BME280;57470;50.034;15.256;2023-07-31T11:35:33;99012.63;;;25.01;60.31
70103;BME280;57470;50.034;15.256;2023-07-31T11:38:00;99004.00;;;24.91;62.17
70103;BME280;57470;50.034;15.256;2023-07-31T11:40:25;99008.19;;;24.13;62.02
70103;BME280;57470;50.034;15.256;2023-07-31T11:42:58;99008.88;;;25.02;59.50
70103;BME280;57470;50.034;15.256;2023-07-31T11:45:25;99004.03;;;25.24;59.91
70103;BME280;57470;50.034;15.256;2023-07-31T11:47:55;99001.66;;;24.61;61.58
70103;BME280;57470;50.034;15.256;2023-07-31T11:50:22;99010.75;;;24.95;60.07
70103;BME280;57470;50.034;15.256;2023-07-31T11:52:49;99007.00;;;24.96;61.65
70103;BME280;57470;50.034;15.256;2023-07-31T11:55:15;99004.47;;;25.01;61.09
70103;BME280;57470;50.034;15.256;2023-07-31T11:57:43;99002.78;;;24.93;60.24
70103;BME280;57470;50.034;15.256;2023-07-31T12:00:11;99000.25;;;25.38;59.47
70103;BME280;57470;50.034;15.256;2023-07-31T12:02:38;98998.16;;;25.66;59.35
70103;BME280;57470;50.034;15.256;2023-07-31T12:05:11;98998.03;;;25.99;59.05
70103;BME280;57470;50.034;15.256;2023-07-31T12:07:47;98993.84;;;25.97;58.53
70103;BME280;57470;50.034;15.256;2023-07-31T12:10:24;98992.88;;;26.36;57.62
70103;BME280;57470;50.034;15.256;2023-07-31T12:13:23;98986.44;;;26.17;57.23
70103;BME280;57470;50.034;15.256;2023-07-31T12:15:53;98991.50;;;26.51;57.42
70103;BME280;57470;50.034;15.256;2023-07-31T12:18:19;98979.13;;;26.04;58.14
70103;BME280;57470;50.034;15.256;2023-07-31T12:21:06;98982.75;;;26.43;58.18
70103;BME280;57470;50.034;15.256;2023-07-31T12:23:35;98979.66;;;26.33;56.76
70103;BME280;57470;50.034;15.256;2023-07-31T12:26:15;98967.78;;;26.14;56.74
70103;BME280;57470;50.034;15.256;2023-07-31T12:28:46;98963.91;;;25.90;58.15
70103;BME280;57470;50.034;15.256;2023-07-31T12:31:14;98962.75;;;25.33;58.31
70103;BME280;57470;50.034;15.256;2023-07-31T12:33:41;98958.00;;;25.02;58.16
70103;BME280;57470;50.034;15.256;2023-07-31T12:36:09;98959.59;;;25.56;59.11
70103;BME280;57470;50.034;15.256;2023-07-31T12:38:35;98958.34;;;25.46;58.78
70103;BME280;57470;50.034;15.256;2023-07-31T12:41:00;98959.81;;;25.41;58.89
70103;BME280;57470;50.034;15.256;2023-07-31T12:43:26;98959.25;;;25.13;58.85
70103;BME280;57470;50.034;15.256;2023-07-31T12:45:53;98964.69;;;25.13;58.96
70103;BME280;57470;50.034;15.256;2023-07-31T12:48:18;98966.75;;;25.37;58.72
70103;BME280;57470;50.034;15.256;2023-07-31T12:50:44;98954.00;;;25.18;58.81
70103;BME280;57470;50.034;15.256;2023-07-31T12:53:09;98955.44;;;25.34;59.68
70103;BME280;57470;50.034;15.256;2023-07-31T12:55:35;98942.47;;;25.16;59.98
70103;BME280;57470;50.034;15.256;2023-07-31T12:58:02;98950.78;;;25.54;59.52